sensor_id;sensor_type;location;lat;lon;timestamp;pressure;altitude;pressure_sealevel;temperature
69545;BMP180;56766;52.260;20.746;2022-08-05T00:01:17;100659.00;;;17.12
69545;BMP180;56766;52.260;20.746;2022-08-05T00:03:48;100654.40;;;17.10
69545;BMP180;56766;52.260;20.746;2022-08-05T00:06:17;100650.40;;;17.10
69545;BMP180;56766;52.260;20.746;2022-08-05T00:08:44;100652.60;;;17.10
69545;BMP180;56766;52.260;20.746;2022-08-05T00:11:13;100648.80;;;17.10
69545;BMP180;56766;52.260;20.746;2022-08-05T00:13:43;100650.80;;;17.10
69545;BMP180;56766;52.260;20.746;2022-08-05T00:16:14;100651.80;;;17.10
69545;BMP180;56766;52.260;20.746;2022-08-05T00:18:45;100649.80;;;17.10
69545;BMP180;56766;52.260;20.746;2022-08-05T00:21:16;100651.00;;;17.10
69545;BMP180;56766;52.260;20.746;2022-08-05T00:23:46;100651.40;;;17.10
69545;BMP180;56766;52.260;20.746;2022-08-05T00:26:15;100648.00;;;17.00
69545;BMP180;56766;52.260;20.746;2022-08-05T00:28:42;100649.20;;;17.00
69545;BMP180;56766;52.260;20.746;2022-08-05T00:31:09;100649.40;;;16.96
69545;BMP180;56766;52.260;20.746;2022-08-05T00:33:35;100644.60;;;16.90
69545;BMP180;56766;52.260;20.746;2022-08-05T00:36:03;100647.00;;;16.90
69545;BMP180;56766;52.260;20.746;2022-08-05T00:38:29;100645.40;;;16.90
69545;BMP180;56766;52.260;20.746;2022-08-05T00:40:57;100646.60;;;16.90
69545;BMP180;56766;52.260;20.746;2022-08-05T00:43:26;100644.00;;;16.90
69545;BMP180;56766;52.260;20.746;2022-08-05T00:45:55;100647.00;;;16.90
69545;BMP180;56766;52.260;20.746;2022-08-05T00:48:22;100642.40;;;16.90
69545;BMP180;56766;52.260;20.746;2022-08-05T00:50:51;100643.80;;;16.90
69545;BMP180;56766;52.260;20.746;2022-08-05T00:53:21;100644.60;;;16.90
69545;BMP180;56766;52.260;20.746;2022-08-05T00:55:49;100641.40;;;16.90
69545;BMP180;56766;52.260;20.746;2022-08-05T00:58:18;100637.60;;;16.90
69545;BMP180;56766;52.260;20.746;2022-08-05T01:00:46;100637.40;;;16.86
69545;BMP180;56766;52.260;20.746;2022-08-05T01:03:13;100636.80;;;16.82
69545;BMP180;56766;52.260;20.746;2022-08-05T01:05:39;100630.80;;;16.84
69545;BMP180;56766;52.260;20.746;2022-08-05T01:08:06;100632.80;;;16.82
69545;BMP180;56766;52.260;20.746;2022-08-05T01:10:47;100629.60;;;16.80
69545;BMP180;56766;52.260;20.746;2022-08-05T01:16:01;100628.60;;;16.80
69545;BMP180;56766;52.260;20.746;2022-08-05T01:18:39;100626.00;;;16.80
69545;BMP180;56766;52.260;20.746;2022-08-05T01:21:30;100625.60;;;16.80
69545;BMP180;56766;52.260;20.746;2022-08-05T01:28:02;100627.60;;;16.80
69545;BMP180;56766;52.260;20.746;2022-08-05T01:30:39;100619.00;;;16.86
69545;BMP180;56766;52.260;20.746;2022-08-05T01:33:11;100617.00;;;16.88
69545;BMP180;56766;52.260;20.746;2022-08-05T01:35:44;100616.20;;;16.84
69545;BMP180;56766;52.260;20.746;2022-08-05T01:38:14;100616.60;;;16.80
69545;BMP180;56766;52.260;20.746;2022-08-05T01:40:45;100619.40;;;16.90
69545;BMP180;56766;52.260;20.746;2022-08-05T01:43:13;100612.20;;;16.90
69545;BMP180;56766;52.260;20.746;2022-08-05T01:45:42;100610.40;;;16.90
69545;BMP180;56766;52.260;20.746;2022-08-05T01:48:10;100612.80;;;16.90
69545;BMP180;56766;52.260;20.746;2022-08-05T01:50:40;100613.80;;;16.88
69545;BMP180;56766;52.260;20.746;2022-08-05T01:53:12;100609.00;;;16.80
69545;BMP180;56766;52.260;20.746;2022-08-05T01:55:44;100610.20;;;16.80
69545;BMP180;56766;52.260;20.746;2022-08-05T01:58:13;100603.00;;;16.80
69545;BMP180;56766;52.260;20.746;2022-08-05T02:00:48;100610.20;;;16.80
69545;BMP180;56766;52.260;20.746;2022-08-05T02:03:24;100608.20;;;16.80
69545;BMP180;56766;52.260;20.746;2022-08-05T02:05:53;100605.20;;;16.80
69545;BMP180;56766;52.260;20.746;2022-08-05T02:08:21;100606.60;;;16.80
69545;BMP180;56766;52.260;20.746;2022-08-05T02:10:56;100603.20;;;16.86
69545;BMP180;56766;52.260;20.746;2022-08-05T02:22:25;100590.00;;;16.80
69545;BMP180;56766;52.260;20.746;2022-08-05T02:25:05;100588.00;;;16.80
69545;BMP180;56766;52.260;20.746;2022-08-05T02:27:39;100587.40;;;16.80
69545;BMP180;56766;52.260;20.746;2022-08-05T02:30:11;100584.00;;;16.76
69545;BMP180;56766;52.260;20.746;2022-08-05T02:32:40;100582.60;;;16.70
69545;BMP180;56766;52.260;20.746;2022-08-05T02:35:16;100581.60;;;16.70
69545;BMP180;56766;52.260;20.746;2022-08-05T02:37:46;100587.20;;;16.70
69545;BMP180;56766;52.260;20.746;2022-08-05T02:40:16;100585.20;;;16.70
69545;BMP180;56766;52.260;20.746;2022-08-05T02:42:46;100580.80;;;16.80
69545;BMP180;56766;52.260;20.746;2022-08-05T02:45:16;100578.60;;;16.80
69545;BMP180;56766;52.260;20.746;2022-08-05T02:47:49;100576.20;;;16.80
69545;BMP180;56766;52.260;20.746;2022-08-05T02:50:19;100574.00;;;16.80
69545;BMP180;56766;52.260;20.746;2022-08-05T02:52:49;100574.80;;;16.70
69545;BMP180;56766;52.260;20.746;2022-08-05T02:55:17;100571.60;;;16.70
69545;BMP180;56766;52.260;20.746;2022-08-05T02:57:46;100572.80;;;16.70
69545;BMP180;56766;52.260;20.746;2022-08-05T03:00:13;100571.40;;;16.70
69545;BMP180;56766;52.260;20.746;2022-08-05T03:02:43;100569.40;;;16.70
69545;BMP180;56766;52.260;20.746;2022-08-05T03:05:12;100564.00;;;16.72
69545;BMP180;56766;52.260;20.746;2022-08-05T03:07:42;100567.60;;;16.80
69545;BMP180;56766;52.260;20.746;2022-08-05T03:10:09;100565.80;;;16.80
69545;BMP180;56766;52.260;20.746;2022-08-05T03:12:38;100563.20;;;16.80
69545;BMP180;56766;52.260;20.746;2022-08-05T03:15:08;100567.00;;;16.84
69545;BMP180;56766;52.260;20.746;2022-08-05T03:17:36;100567.60;;;16.90
69545;BMP180;56766;52.260;20.746;2022-08-05T03:20:05;100560.20;;;16.90
69545;BMP180;56766;52.260;20.746;2022-08-05T03:22:32;100558.00;;;16.90
69545;BMP180;56766;52.260;20.746;2022-08-05T03:25:00;100558.60;;;17.00
69545;BMP180;56766;52.260;20.746;2022-08-05T03:27:28;100558.20;;;17.00
69545;BMP180;56766;52.260;20.746;2022-08-05T03:29:54;100560.80;;;17.10
69545;BMP180;56766;52.260;20.746;2022-08-05T03:32:21;100555.60;;;17.10
69545;BMP180;56766;52.260;20.746;2022-08-05T03:34:48;100557.40;;;17.10
69545;BMP180;56766;52.260;20.746;2022-08-05T03:37:15;100557.40;;;17.10
69545;BMP180;56766;52.260;20.746;2022-08-05T03:39:55;100561.20;;;17.20
69545;BMP180;56766;52.260;20.746;2022-08-05T03:42:22;100558.20;;;17.20
69545;BMP180;56766;52.260;20.746;2022-08-05T03:44:49;100565.20;;;17.24
69545;BMP180;56766;52.260;20.746;2022-08-05T03:47:16;100562.40;;;17.30
69545;BMP180;56766;52.260;20.746;2022-08-05T03:49:42;100563.20;;;17.30
69545;BMP180;56766;52.260;20.746;2022-08-05T03:52:17;100562.20;;;17.30
69545;BMP180;56766;52.260;20.746;2022-08-05T03:54:58;100554.20;;;17.40
69545;BMP180;56766;52.260;20.746;2022-08-05T03:57:31;100559.00;;;17.50
69545;BMP180;56766;52.260;20.746;2022-08-05T04:00:09;100557.60;;;17.60
69545;BMP180;56766;52.260;20.746;2022-08-05T04:02:42;100561.60;;;17.60
69545;BMP180;56766;52.260;20.746;2022-08-05T04:05:11;100554.80;;;17.70
69545;BMP180;56766;52.260;20.746;2022-08-05T04:07:40;100558.40;;;17.80
69545;BMP180;56766;52.260;20.746;2022-08-05T04:10:09;100555.60;;;17.90
69545;BMP180;56766;52.260;20.746;2022-08-05T04:12:36;100552.80;;;17.90
69545;BMP180;56766;52.260;20.746;2022-08-05T04:15:04;100546.40;;;18.00
69545;BMP180;56766;52.260;20.746;2022-08-05T04:17:34;100554.40;;;18.02
69545;BMP180;56766;52.260;20.746;2022-08-05T04:20:01;100559.40;;;18.10
69545;BMP180;56766;52.260;20.746;2022-08-05T04:22:27;100554.80;;;18.20
69545;BMP180;56766;52.260;20.746;2022-08-05T04:24:54;100552.20;;;18.20
69545;BMP180;56766;52.260;20.746;2022-08-05T04:27:21;100554.60;;;18.30
69545;BMP180;56766;52.260;20.746;2022-08-05T04:29:49;100558.20;;;18.40
69545;BMP180;56766;52.260;20.746;2022-08-05T04:32:15;100555.60;;;18.42
69545;BMP180;56766;52.260;20.746;2022-08-05T04:34:42;100558.20;;;18.50
69545;BMP180;56766;52.260;20.746;2022-08-05T04:37:09;100548.80;;;18.60
69545;BMP180;56766;52.260;20.746;2022-08-05T04:39:36;100551.00;;;18.70
69545;BMP180;56766;52.260;20.746;2022-08-05T04:42:03;100550.60;;;18.80
69545;BMP180;56766;52.260;20.746;2022-08-05T04:44:30;100556.40;;;18.90
69545;BMP180;56766;52.260;20.746;2022-08-05T04:46:58;100550.40;;;19.10
69545;BMP180;56766;52.260;20.746;2022-08-05T04:49:26;100544.80;;;19.44
69545;BMP180;56766;52.260;20.746;2022-08-05T04:51:53;100546.60;;;19.94
69545;BMP180;56766;52.260;20.746;2022-08-05T04:54:19;100544.40;;;20.40
69545;BMP180;56766;52.260;20.746;2022-08-05T04:56:47;100543.40;;;20.90
69545;BMP180;56766;52.260;20.746;2022-08-05T04:59:14;100539.40;;;21.30
69545;BMP180;56766;52.260;20.746;2022-08-05T05:01:41;100541.00;;;21.60
69545;BMP180;56766;52.260;20.746;2022-08-05T05:04:08;100542.00;;;21.90
69545;BMP180;56766;52.260;20.746;2022-08-05T05:06:34;100543.00;;;22.20
69545;BMP180;56766;52.260;20.746;2022-08-05T05:09:01;100544.80;;;22.40
69545;BMP180;56766;52.260;20.746;2022-08-05T05:11:27;100547.20;;;22.50
69545;BMP180;56766;52.260;20.746;2022-08-05T05:13:54;100545.20;;;22.60
69545;BMP180;56766;52.260;20.746;2022-08-05T05:16:21;100549.20;;;22.70
69545;BMP180;56766;52.260;20.746;2022-08-05T05:18:47;100553.80;;;22.90
69545;BMP180;56766;52.260;20.746;2022-08-05T05:21:14;100551.80;;;23.10
69545;BMP180;56766;52.260;20.746;2022-08-05T05:23:41;100552.60;;;23.20
69545;BMP180;56766;52.260;20.746;2022-08-05T05:26:08;100560.00;;;23.20
69545;BMP180;56766;52.260;20.746;2022-08-05T05:28:35;100558.40;;;23.30
69545;BMP180;56766;52.260;20.746;2022-08-05T05:31:02;100561.20;;;23.30
69545;BMP180;56766;52.260;20.746;2022-08-05T05:33:28;100556.20;;;23.30
69545;BMP180;56766;52.260;20.746;2022-08-05T05:35:55;100563.60;;;23.32
69545;BMP180;56766;52.260;20.746;2022-08-05T05:38:21;100564.60;;;23.40
69545;BMP180;56766;52.260;20.746;2022-08-05T05:40:48;100567.40;;;23.40
69545;BMP180;56766;52.260;20.746;2022-08-05T05:43:15;100574.40;;;23.50
69545;BMP180;56766;52.260;20.746;2022-08-05T05:45:41;100569.40;;;23.60
69545;BMP180;56766;52.260;20.746;2022-08-05T05:48:08;100570.40;;;23.70
69545;BMP180;56766;52.260;20.746;2022-08-05T05:50:35;100570.60;;;23.80
69545;BMP180;56766;52.260;20.746;2022-08-05T05:53:02;100569.40;;;23.90
69545;BMP180;56766;52.260;20.746;2022-08-05T05:55:28;100568.40;;;23.96
69545;BMP180;56766;52.260;20.746;2022-08-05T05:57:55;100564.80;;;24.00
69545;BMP180;56766;52.260;20.746;2022-08-05T06:00:22;100563.00;;;24.10
69545;BMP180;56766;52.260;20.746;2022-08-05T06:02:48;100561.00;;;24.16
69545;BMP180;56766;52.260;20.746;2022-08-05T06:05:16;100557.60;;;24.20
69545;BMP180;56766;52.260;20.746;2022-08-05T06:07:44;100555.40;;;24.30
69545;BMP180;56766;52.260;20.746;2022-08-05T06:10:12;100553.40;;;24.30
69545;BMP180;56766;52.260;20.746;2022-08-05T06:12:39;100554.80;;;24.40
69545;BMP180;56766;52.260;20.746;2022-08-05T06:15:07;100549.40;;;24.50
69545;BMP180;56766;52.260;20.746;2022-08-05T06:17:34;100546.60;;;24.60
69545;BMP180;56766;52.260;20.746;2022-08-05T06:20:03;100546.00;;;24.60
69545;BMP180;56766;52.260;20.746;2022-08-05T06:22:33;100552.60;;;24.70
69545;BMP180;56766;52.260;20.746;2022-08-05T06:25:04;100546.00;;;24.72
69545;BMP180;56766;52.260;20.746;2022-08-05T06:27:34;100551.20;;;24.74
69545;BMP180;56766;52.260;20.746;2022-08-05T06:30:02;100554.20;;;24.80
69545;BMP180;56766;52.260;20.746;2022-08-05T06:32:29;100556.80;;;24.80
69545;BMP180;56766;52.260;20.746;2022-08-05T06:34:56;100553.80;;;24.90
69545;BMP180;56766;52.260;20.746;2022-08-05T06:37:27;100554.40;;;24.90
69545;BMP180;56766;52.260;20.746;2022-08-05T06:39:54;100551.60;;;24.90
69545;BMP180;56766;52.260;20.746;2022-08-05T06:42:21;100553.00;;;24.90
69545;BMP180;56766;52.260;20.746;2022-08-05T06:44:47;100544.00;;;25.00
69545;BMP180;56766;52.260;20.746;2022-08-05T06:47:14;100539.40;;;25.00
69545;BMP180;56766;52.260;20.746;2022-08-05T06:49:40;100538.60;;;25.00
69545;BMP180;56766;52.260;20.746;2022-08-05T06:52:07;100542.40;;;25.00
69545;BMP180;56766;52.260;20.746;2022-08-05T06:54:34;100543.20;;;25.10
69545;BMP180;56766;52.260;20.746;2022-08-05T06:57:00;100538.60;;;25.20
69545;BMP180;56766;52.260;20.746;2022-08-05T06:59:27;100537.20;;;25.20
69545;BMP180;56766;52.260;20.746;2022-08-05T07:01:53;100541.40;;;25.20
69545;BMP180;56766;52.260;20.746;2022-08-05T07:04:20;100543.80;;;25.30
69545;BMP180;56766;52.260;20.746;2022-08-05T07:06:47;100540.40;;;25.40
69545;BMP180;56766;52.260;20.746;2022-08-05T07:09:13;100535.80;;;25.40
69545;BMP180;56766;52.260;20.746;2022-08-05T07:11:40;100533.40;;;25.50
69545;BMP180;56766;52.260;20.746;2022-08-05T07:14:07;100536.60;;;25.60
69545;BMP180;56766;52.260;20.746;2022-08-05T07:16:52;100538.00;;;25.70
69545;BMP180;56766;52.260;20.746;2022-08-05T07:19:26;100536.60;;;25.70
69545;BMP180;56766;52.260;20.746;2022-08-05T07:21:54;100542.60;;;25.80
69545;BMP180;56766;52.260;20.746;2022-08-05T07:24:23;100542.40;;;25.90
69545;BMP180;56766;52.260;20.746;2022-08-05T07:26:51;100537.20;;;26.00
69545;BMP180;56766;52.260;20.746;2022-08-05T07:29:18;100542.00;;;26.10
69545;BMP180;56766;52.260;20.746;2022-08-05T07:31:45;100541.00;;;26.20
69545;BMP180;56766;52.260;20.746;2022-08-05T07:34:12;100540.00;;;26.20
69545;BMP180;56766;52.260;20.746;2022-08-05T07:36:40;100534.00;;;26.30
69545;BMP180;56766;52.260;20.746;2022-08-05T07:39:08;100542.80;;;26.40
69545;BMP180;56766;52.260;20.746;2022-08-05T07:41:35;100537.40;;;26.54
69545;BMP180;56766;52.260;20.746;2022-08-05T07:44:05;100538.80;;;26.60
69545;BMP180;56766;52.260;20.746;2022-08-05T07:46:32;100538.60;;;26.70
69545;BMP180;56766;52.260;20.746;2022-08-05T07:49:02;100538.00;;;26.80
69545;BMP180;56766;52.260;20.746;2022-08-05T07:51:32;100534.20;;;26.90
69545;BMP180;56766;52.260;20.746;2022-08-05T07:53:59;100535.20;;;27.10
69545;BMP180;56766;52.260;20.746;2022-08-05T07:56:27;100532.60;;;27.30
69545;BMP180;56766;52.260;20.746;2022-08-05T07:58:53;100527.20;;;27.40
69545;BMP180;56766;52.260;20.746;2022-08-05T08:01:20;100527.00;;;27.48
69545;BMP180;56766;52.260;20.746;2022-08-05T08:03:50;100526.20;;;27.60
69545;BMP180;56766;52.260;20.746;2022-08-05T08:06:17;100523.20;;;27.70
69545;BMP180;56766;52.260;20.746;2022-08-05T08:08:43;100527.20;;;27.78
69545;BMP180;56766;52.260;20.746;2022-08-05T08:11:10;100523.00;;;27.90
69545;BMP180;56766;52.260;20.746;2022-08-05T08:13:37;100520.40;;;27.96
69545;BMP180;56766;52.260;20.746;2022-08-05T08:16:04;100525.20;;;28.10
69545;BMP180;56766;52.260;20.746;2022-08-05T08:18:30;100523.60;;;28.20
69545;BMP180;56766;52.260;20.746;2022-08-05T08:20:57;100524.60;;;28.30
69545;BMP180;56766;52.260;20.746;2022-08-05T08:23:23;100523.00;;;28.40
69545;BMP180;56766;52.260;20.746;2022-08-05T08:25:50;100523.00;;;28.50
69545;BMP180;56766;52.260;20.746;2022-08-05T08:28:17;100528.00;;;28.60
69545;BMP180;56766;52.260;20.746;2022-08-05T08:30:43;100524.00;;;28.70
69545;BMP180;56766;52.260;20.746;2022-08-05T08:33:11;100523.40;;;28.72
69545;BMP180;56766;52.260;20.746;2022-08-05T08:35:37;100519.60;;;28.82
69545;BMP180;56766;52.260;20.746;2022-08-05T08:38:04;100519.40;;;28.90
69545;BMP180;56766;52.260;20.746;2022-08-05T08:40:33;100523.20;;;28.98
69545;BMP180;56766;52.260;20.746;2022-08-05T08:43:02;100522.80;;;29.06
69545;BMP180;56766;52.260;20.746;2022-08-05T08:45:30;100524.40;;;29.16
69545;BMP180;56766;52.260;20.746;2022-08-05T08:47:58;100522.20;;;29.22
69545;BMP180;56766;52.260;20.746;2022-08-05T08:50:30;100518.80;;;29.30
69545;BMP180;56766;52.260;20.746;2022-08-05T08:53:05;100519.80;;;29.44
69545;BMP180;56766;52.260;20.746;2022-08-05T08:55:34;100519.80;;;29.60
69545;BMP180;56766;52.260;20.746;2022-08-05T08:58:01;100517.60;;;29.72
69545;BMP180;56766;52.260;20.746;2022-08-05T09:00:29;100515.60;;;29.90
69545;BMP180;56766;52.260;20.746;2022-08-05T09:02:57;100519.00;;;30.00
69545;BMP180;56766;52.260;20.746;2022-08-05T09:05:24;100519.00;;;30.10
69545;BMP180;56766;52.260;20.746;2022-08-05T09:07:52;100516.40;;;30.20
69545;BMP180;56766;52.260;20.746;2022-08-05T09:10:21;100519.60;;;30.32
69545;BMP180;56766;52.260;20.746;2022-08-05T09:12:48;100518.60;;;30.50
69545;BMP180;56766;52.260;20.746;2022-08-05T09:15:15;100513.40;;;30.50
69545;BMP180;56766;52.260;20.746;2022-08-05T09:17:42;100510.00;;;30.50
69545;BMP180;56766;52.260;20.746;2022-08-05T09:20:10;100511.60;;;30.56
69545;BMP180;56766;52.260;20.746;2022-08-05T09:23:14;100510.20;;;30.70
69545;BMP180;56766;52.260;20.746;2022-08-05T09:25:46;100508.40;;;30.70
69545;BMP180;56766;52.260;20.746;2022-08-05T09:28:19;100506.60;;;30.72
69545;BMP180;56766;52.260;20.746;2022-08-05T09:31:00;100502.60;;;30.80
69545;BMP180;56766;52.260;20.746;2022-08-05T09:33:31;100497.80;;;30.90
69545;BMP180;56766;52.260;20.746;2022-08-05T09:36:05;100495.40;;;31.00
69545;BMP180;56766;52.260;20.746;2022-08-05T09:38:31;100490.80;;;31.02
69545;BMP180;56766;52.260;20.746;2022-08-05T09:41:05;100493.80;;;31.00
69545;BMP180;56766;52.260;20.746;2022-08-05T09:43:37;100496.00;;;31.10
69545;BMP180;56766;52.260;20.746;2022-08-05T09:46:06;100490.00;;;31.20
69545;BMP180;56766;52.260;20.746;2022-08-05T09:48:37;100492.00;;;31.20
69545;BMP180;56766;52.260;20.746;2022-08-05T09:51:07;100483.20;;;31.30
69545;BMP180;56766;52.260;20.746;2022-08-05T09:53:51;100485.60;;;31.24
69545;BMP180;56766;52.260;20.746;2022-08-05T09:56:30;100482.20;;;31.30
69545;BMP180;56766;52.260;20.746;2022-08-05T09:59:06;100483.20;;;31.40
69545;BMP180;56766;52.260;20.746;2022-08-05T10:01:36;100481.00;;;31.30
69545;BMP180;56766;52.260;20.746;2022-08-05T10:04:08;100486.00;;;31.30
69545;BMP180;56766;52.260;20.746;2022-08-05T10:06:40;100479.40;;;31.20
69545;BMP180;56766;52.260;20.746;2022-08-05T10:09:13;100476.00;;;31.30
69545;BMP180;56766;52.260;20.746;2022-08-05T10:11:43;100475.60;;;31.20
69545;BMP180;56766;52.260;20.746;2022-08-05T10:14:30;100473.40;;;31.30
69545;BMP180;56766;52.260;20.746;2022-08-05T10:17:13;100470.80;;;31.30
69545;BMP180;56766;52.260;20.746;2022-08-05T10:19:40;100465.80;;;31.30
69545;BMP180;56766;52.260;20.746;2022-08-05T10:22:08;100463.80;;;31.40
69545;BMP180;56766;52.260;20.746;2022-08-05T10:24:35;100463.40;;;31.50
69545;BMP180;56766;52.260;20.746;2022-08-05T10:27:03;100464.40;;;31.60
69545;BMP180;56766;52.260;20.746;2022-08-05T10:29:29;100464.40;;;31.70
69545;BMP180;56766;52.260;20.746;2022-08-05T10:32:02;100468.80;;;31.70
69545;BMP180;56766;52.260;20.746;2022-08-05T10:34:30;100473.00;;;31.80
69545;BMP180;56766;52.260;20.746;2022-08-05T10:36:58;100462.40;;;31.80
69545;BMP180;56766;52.260;20.746;2022-08-05T10:39:37;100463.60;;;31.90
69545;BMP180;56766;52.260;20.746;2022-08-05T10:42:21;100459.80;;;31.90
69545;BMP180;56766;52.260;20.746;2022-08-05T10:44:53;100455.80;;;31.90
69545;BMP180;56766;52.260;20.746;2022-08-05T10:47:32;100456.00;;;31.98
69545;BMP180;56766;52.260;20.746;2022-08-05T10:50:05;100445.60;;;32.00
69545;BMP180;56766;52.260;20.746;2022-08-05T10:52:47;100443.40;;;32.00
69545;BMP180;56766;52.260;20.746;2022-08-05T10:55:19;100445.20;;;32.10
69545;BMP180;56766;52.260;20.746;2022-08-05T10:57:46;100437.80;;;32.10
69545;BMP180;56766;52.260;20.746;2022-08-05T11:00:19;100430.60;;;32.20
69545;BMP180;56766;52.260;20.746;2022-08-05T11:05:35;100432.40;;;32.10
69545;BMP180;56766;52.260;20.746;2022-08-05T11:08:06;100434.80;;;32.10
69545;BMP180;56766;52.260;20.746;2022-08-05T11:10:36;100431.60;;;32.20
69545;BMP180;56766;52.260;20.746;2022-08-05T11:13:05;100428.40;;;32.20
69545;BMP180;56766;52.260;20.746;2022-08-05T11:15:37;100427.40;;;32.20
69545;BMP180;56766;52.260;20.746;2022-08-05T11:18:24;100421.80;;;32.20
69545;BMP180;56766;52.260;20.746;2022-08-05T11:20:52;100424.60;;;32.30
69545;BMP180;56766;52.260;20.746;2022-08-05T11:23:51;100427.00;;;32.30
69545;BMP180;56766;52.260;20.746;2022-08-05T11:28:55;100421.80;;;32.40
69545;BMP180;56766;52.260;20.746;2022-08-05T11:31:25;100419.80;;;32.42
69545;BMP180;56766;52.260;20.746;2022-08-05T11:34:06;100421.00;;;32.56
69545;BMP180;56766;52.260;20.746;2022-08-05T11:36:49;100419.20;;;32.60
69545;BMP180;56766;52.260;20.746;2022-08-05T11:39:47;100418.40;;;32.60
69545;BMP180;56766;52.260;20.746;2022-08-05T11:42:21;100416.80;;;32.56
69545;BMP180;56766;52.260;20.746;2022-08-05T11:44:49;100417.20;;;32.60
69545;BMP180;56766;52.260;20.746;2022-08-05T11:47:22;100414.00;;;32.66
69545;BMP180;56766;52.260;20.746;2022-08-05T11:49:55;100417.20;;;32.70
69545;BMP180;56766;52.260;20.746;2022-08-05T11:52:27;100412.40;;;32.70
69545;BMP180;56766;52.260;20.746;2022-08-05T11:54:55;100412.20;;;32.70
69545;BMP180;56766;52.260;20.746;2022-08-05T11:57:30;100412.40;;;32.70
69545;BMP180;56766;52.260;20.746;2022-08-05T11:59:57;100410.20;;;32.70
69545;BMP180;56766;52.260;20.746;2022-08-05T12:02:28;100412.80;;;32.70
69545;BMP180;56766;52.260;20.746;2022-08-05T12:04:57;100414.00;;;32.60
69545;BMP180;56766;52.260;20.746;2022-08-05T12:07:24;100417.80;;;32.70
69545;BMP180;56766;52.260;20.746;2022-08-05T12:09:53;100409.80;;;32.80
69545;BMP180;56766;52.260;20.746;2022-08-05T12:12:25;100410.20;;;32.80
69545;BMP180;56766;52.260;20.746;2022-08-05T12:14:55;100406.80;;;32.90
69545;BMP180;56766;52.260;20.746;2022-08-05T12:17:23;100402.40;;;32.96
69545;BMP180;56766;52.260;20.746;2022-08-05T12:19:53;100399.40;;;33.06
69545;BMP180;56766;52.260;20.746;2022-08-05T12:22:26;100394.20;;;33.12
69545;BMP180;56766;52.260;20.746;2022-08-05T12:24:53;100387.20;;;33.12
69545;BMP180;56766;52.260;20.746;2022-08-05T12:27:24;100386.80;;;33.10
69545;BMP180;56766;52.260;20.746;2022-08-05T12:30:05;100384.00;;;33.10
69545;BMP180;56766;52.260;20.746;2022-08-05T12:32:43;100381.00;;;33.00
69545;BMP180;56766;52.260;20.746;2022-08-05T12:35:12;100379.20;;;33.00
69545;BMP180;56766;52.260;20.746;2022-08-05T12:37:42;100376.20;;;33.00
69545;BMP180;56766;52.260;20.746;2022-08-05T12:40:11;100379.00;;;33.04
69545;BMP180;56766;52.260;20.746;2022-08-05T12:42:38;100374.20;;;33.10
69545;BMP180;56766;52.260;20.746;2022-08-05T12:45:08;100373.80;;;33.10
69545;BMP180;56766;52.260;20.746;2022-08-05T12:47:37;100373.60;;;33.16
69545;BMP180;56766;52.260;20.746;2022-08-05T12:50:16;100374.80;;;33.02
69545;BMP180;56766;52.260;20.746;2022-08-05T12:52:57;100378.60;;;33.00
69545;BMP180;56766;52.260;20.746;2022-08-05T12:55:28;100372.20;;;32.98
69545;BMP180;56766;52.260;20.746;2022-08-05T12:57:58;100375.40;;;32.96
69545;BMP180;56766;52.260;20.746;2022-08-05T13:00:27;100372.00;;;32.90
69545;BMP180;56766;52.260;20.746;2022-08-05T13:03:00;100368.80;;;32.84
69545;BMP180;56766;52.260;20.746;2022-08-05T13:05:27;100369.80;;;32.80
69545;BMP180;56766;52.260;20.746;2022-08-05T13:07:57;100363.60;;;32.80
69545;BMP180;56766;52.260;20.746;2022-08-05T13:10:24;100364.40;;;32.70
69545;BMP180;56766;52.260;20.746;2022-08-05T13:12:54;100358.00;;;32.70
69545;BMP180;56766;52.260;20.746;2022-08-05T13:15:29;100356.00;;;32.72
69545;BMP180;56766;52.260;20.746;2022-08-05T13:17:57;100355.40;;;32.78
69545;BMP180;56766;52.260;20.746;2022-08-05T13:20:33;100352.00;;;32.80
69545;BMP180;56766;52.260;20.746;2022-08-05T13:23:00;100347.40;;;32.80
69545;BMP180;56766;52.260;20.746;2022-08-05T13:25:27;100347.00;;;32.84
69545;BMP180;56766;52.260;20.746;2022-08-05T13:27:54;100341.20;;;32.80
69545;BMP180;56766;52.260;20.746;2022-08-05T13:30:23;100343.20;;;32.78
69545;BMP180;56766;52.260;20.746;2022-08-05T13:32:52;100341.40;;;32.70
69545;BMP180;56766;52.260;20.746;2022-08-05T13:35:21;100339.20;;;32.66
69545;BMP180;56766;52.260;20.746;2022-08-05T13:37:48;100337.60;;;32.50
69545;BMP180;56766;52.260;20.746;2022-08-05T13:40:15;100331.80;;;32.40
69545;BMP180;56766;52.260;20.746;2022-08-05T13:42:44;100329.80;;;32.30
69545;BMP180;56766;52.260;20.746;2022-08-05T13:45:11;100332.40;;;32.30
69545;BMP180;56766;52.260;20.746;2022-08-05T13:47:37;100325.60;;;32.30
69545;BMP180;56766;52.260;20.746;2022-08-05T13:50:06;100318.80;;;32.20
69545;BMP180;56766;52.260;20.746;2022-08-05T13:52:33;100317.80;;;32.10
69545;BMP180;56766;52.260;20.746;2022-08-05T13:55:00;100318.00;;;32.02
69545;BMP180;56766;52.260;20.746;2022-08-05T13:57:27;100313.40;;;31.94
69545;BMP180;56766;52.260;20.746;2022-08-05T13:59:53;100309.20;;;31.90
69545;BMP180;56766;52.260;20.746;2022-08-05T14:02:20;100308.20;;;32.00
69545;BMP180;56766;52.260;20.746;2022-08-05T14:04:46;100305.80;;;32.04
69545;BMP180;56766;52.260;20.746;2022-08-05T14:07:38;100310.40;;;32.08
69545;BMP180;56766;52.260;20.746;2022-08-05T14:10:18;100311.80;;;32.10
69545;BMP180;56766;52.260;20.746;2022-08-05T14:12:46;100308.20;;;32.20
69545;BMP180;56766;52.260;20.746;2022-08-05T14:15:14;100300.20;;;32.10
69545;BMP180;56766;52.260;20.746;2022-08-05T14:17:43;100306.60;;;32.14
69545;BMP180;56766;52.260;20.746;2022-08-05T14:20:10;100303.00;;;32.20